createdAt,value
2022-09-12T00:00:22.069Z,17.55
2022-09-12T00:02:48.703Z,17.02
2022-09-12T00:05:15.121Z,17.48
2022-09-12T00:07:41.628Z,15.98
2022-09-12T00:10:07.890Z,16.15
2022-09-12T00:12:34.357Z,15.57
2022-09-12T00:15:00.654Z,16.65
2022-09-12T00:17:27.037Z,16.08
2022-09-12T00:19:53.580Z,16.50
2022-09-12T00:22:19.824Z,15.38
2022-09-12T00:24:46.109Z,16.27
2022-09-12T00:27:12.486Z,15.68
2022-09-12T00:29:38.793Z,15.02
2022-09-12T00:32:05.099Z,16.10
2022-09-12T00:34:31.518Z,15.57
2022-09-12T00:36:57.836Z,14.52
2022-09-12T00:39:24.465Z,14.25
2022-09-12T00:41:50.745Z,14.55
2022-09-12T00:44:17.140Z,14.60
2022-09-12T00:46:43.508Z,15.48
2022-09-12T00:49:12.000Z,14.40
2022-09-12T00:51:38.448Z,13.73
2022-09-12T00:54:04.777Z,13.98
2022-09-12T00:56:31.122Z,14.27
2022-09-12T00:58:57.420Z,14.52
2022-09-12T01:01:23.809Z,13.35
2022-09-12T01:03:50.206Z,13.75
2022-09-12T01:06:17.005Z,13.02
2022-09-12T01:08:44.516Z,12.68
2022-09-12T01:11:10.873Z,13.63
2022-09-12T01:13:37.121Z,13.57
2022-09-12T01:16:03.488Z,13.52
2022-09-12T01:18:30.160Z,12.60
2022-09-12T01:20:56.573Z,13.07
2022-09-12T01:23:23.117Z,12.88
2022-09-12T01:25:49.681Z,13.82
2022-09-12T01:28:16.279Z,12.55
2022-09-12T01:30:42.598Z,12.63
2022-09-12T01:33:08.948Z,12.77
2022-09-12T01:35:35.306Z,12.35
2022-09-12T01:38:01.571Z,12.02
2022-09-12T01:40:28.015Z,13.30
2022-09-12T01:42:54.362Z,11.73
2022-09-12T01:45:21.034Z,11.13
2022-09-12T01:47:47.337Z,12.60
2022-09-12T01:50:13.696Z,11.75
2022-09-12T01:52:40.087Z,12.30
2022-09-12T01:55:09.562Z,12.25
2022-09-12T01:57:36.392Z,12.30
2022-09-12T02:00:02.760Z,11.40
2022-09-12T02:02:29.134Z,11.20
2022-09-12T02:04:55.523Z,11.30
2022-09-12T02:07:21.898Z,11.10
2022-09-12T02:09:48.220Z,10.90
2022-09-12T02:12:14.565Z,10.95
2022-09-12T02:14:41.107Z,11.02
2022-09-12T02:17:07.505Z,11.57
2022-09-12T02:19:33.945Z,11.18
2022-09-12T02:22:00.219Z,11.05
2022-09-12T02:24:26.597Z,11.05
2022-09-12T02:26:52.914Z,11.35
2022-09-12T02:29:19.438Z,10.68
2022-09-12T02:31:46.460Z,10.70
2022-09-12T02:34:12.752Z,10.85
2022-09-12T02:36:39.060Z,9.98
2022-09-12T02:39:05.499Z,9.98
2022-09-12T02:41:31.742Z,10.25
2022-09-12T02:43:58.079Z,10.23
2022-09-12T02:46:24.344Z,9.80
2022-09-12T02:48:50.650Z,9.88
2022-09-12T02:51:21.508Z,10.65
2022-09-12T02:53:49.734Z,9.93
2022-09-12T02:56:15.992Z,9.57
2022-09-12T02:58:42.289Z,9.70
2022-09-12T03:01:08.619Z,10.38
2022-09-12T03:03:35.051Z,9.35
2022-09-12T03:06:01.619Z,9.10
2022-09-12T03:08:27.905Z,9.05
2022-09-12T03:10:54.517Z,9.20
2022-09-12T03:13:20.839Z,9.88
2022-09-12T03:15:47.409Z,9.13
2022-09-12T03:18:13.865Z,9.27
2022-09-12T03:20:40.626Z,9.07
2022-09-12T03:23:06.888Z,9.55
2022-09-12T03:25:33.399Z,9.02
2022-09-12T03:27:59.791Z,9.13
2022-09-12T03:30:26.169Z,9.52
2022-09-12T03:32:52.754Z,9.32
2022-09-12T03:35:22.817Z,9.10
2022-09-12T03:37:49.520Z,9.05
2022-09-12T03:40:15.950Z,9.20
2022-09-12T03:42:42.209Z,8.63
2022-09-12T03:45:08.501Z,8.45
2022-09-12T03:47:34.788Z,8.13
2022-09-12T03:50:01.160Z,8.95
2022-09-12T03:52:27.790Z,7.97
2022-09-12T03:54:54.419Z,8.45
2022-09-12T03:57:20.849Z,8.40
2022-09-12T03:59:47.323Z,7.95
2022-09-12T04:02:13.613Z,8.02
2022-09-12T04:04:40.137Z,8.13
2022-09-12T04:07:06.518Z,8.25
2022-09-12T04:09:32.800Z,8.15
2022-09-12T04:11:59.122Z,8.48
2022-09-12T04:14:25.633Z,8.32
2022-09-12T04:16:52.001Z,7.53
2022-09-12T04:19:18.386Z,7.93
2022-09-12T04:21:44.635Z,7.97
2022-09-12T04:24:11.035Z,8.20
2022-09-12T04:26:37.396Z,7.90
2022-09-12T04:29:03.663Z,7.63
2022-09-12T04:31:30.216Z,7.72
2022-09-12T04:33:56.654Z,7.47
2022-09-12T04:36:22.960Z,7.85
2022-09-12T04:38:49.243Z,7.75
2022-09-12T04:41:15.789Z,8.40
2022-09-12T04:43:42.205Z,7.95
2022-09-12T04:46:08.576Z,7.65
2022-09-12T04:48:35.127Z,7.97
2022-09-12T04:51:01.485Z,8.40
2022-09-12T04:53:28.114Z,8.18
2022-09-12T04:55:54.504Z,7.57
2022-09-12T04:58:20.866Z,7.88
2022-09-12T05:00:47.246Z,8.02
2022-09-12T05:03:13.585Z,7.72
2022-09-12T05:05:39.890Z,7.65
2022-09-12T05:08:06.952Z,8.25
2022-09-12T05:10:33.435Z,7.90
2022-09-12T05:12:59.942Z,7.57
2022-09-12T05:15:26.441Z,7.72
2022-09-12T05:17:52.730Z,7.50
2022-09-12T05:20:19.018Z,7.15
2022-09-12T05:22:45.357Z,7.35
2022-09-12T05:25:11.862Z,8.10
2022-09-12T05:27:38.172Z,7.80
2022-09-12T05:30:04.617Z,7.70
2022-09-12T05:32:31.002Z,7.60
2022-09-12T05:34:57.438Z,8.15
2022-09-12T05:37:23.853Z,7.40
2022-09-12T05:39:50.239Z,7.68
2022-09-12T05:42:16.521Z,7.47
2022-09-12T05:44:42.853Z,7.65
2022-09-12T05:47:10.053Z,7.72
2022-09-12T05:49:36.999Z,7.68
2022-09-12T05:52:03.329Z,7.40
2022-09-12T05:54:31.661Z,7.40
2022-09-12T05:56:58.196Z,7.25
2022-09-12T05:59:24.559Z,8.05
2022-09-12T06:01:51.090Z,7.20
2022-09-12T06:04:17.372Z,7.57
2022-09-12T06:06:43.638Z,7.38
2022-09-12T06:09:10.141Z,7.70
2022-09-12T06:11:36.641Z,7.30
2022-09-12T06:14:02.985Z,7.35
2022-09-12T06:16:29.579Z,7.22
2022-09-12T06:18:55.949Z,6.53
2022-09-12T06:21:22.325Z,7.68
2022-09-12T06:23:48.794Z,7.72
2022-09-12T06:26:15.197Z,7.13
2022-09-12T06:28:41.578Z,7.22
2022-09-12T06:31:08.099Z,7.18
2022-09-12T06:33:34.390Z,8.18
2022-09-12T06:36:00.692Z,8.13
2022-09-12T06:38:27.023Z,7.60
2022-09-12T06:40:53.289Z,7.30
2022-09-12T06:43:19.598Z,7.43
2022-09-12T06:45:46.092Z,6.93
2022-09-12T06:48:12.703Z,7.57
2022-09-12T06:50:39.055Z,7.50
2022-09-12T06:53:05.396Z,8.02
2022-09-12T06:55:31.782Z,9.05
2022-09-12T06:57:58.094Z,11.98
2022-09-12T07:00:24.510Z,12.15
2022-09-12T07:02:51.101Z,12.85
2022-09-12T07:05:18.080Z,10.10
2022-09-12T07:07:44.633Z,12.15
2022-09-12T07:10:11.241Z,11.60
2022-09-12T07:12:37.534Z,12.35
2022-09-12T07:15:04.038Z,10.93
2022-09-12T07:17:30.730Z,11.43
2022-09-12T07:19:57.198Z,11.70
2022-09-12T07:22:23.709Z,11.50
2022-09-12T07:24:50.036Z,11.82
2022-09-12T07:27:16.635Z,11.05
2022-09-12T07:29:43.017Z,11.32
2022-09-12T07:32:09.478Z,10.50
2022-09-12T07:34:35.798Z,10.48
2022-09-12T07:37:02.099Z,10.93
2022-09-12T07:39:28.513Z,10.95
2022-09-12T07:41:54.829Z,10.73
2022-09-12T07:44:21.485Z,10.75
2022-09-12T07:46:47.822Z,11.68
2022-09-12T07:49:14.117Z,11.57
2022-09-12T07:51:40.766Z,12.02
2022-09-12T07:54:08.165Z,11.25
2022-09-12T07:56:38.717Z,11.50
2022-09-12T07:59:05.541Z,10.40
2022-09-12T08:01:31.864Z,10.88
2022-09-12T08:03:58.238Z,10.43
2022-09-12T08:06:24.726Z,10.73
2022-09-12T08:08:51.205Z,11.25
2022-09-12T08:11:17.486Z,10.50
2022-09-12T08:13:43.833Z,10.02
2022-09-12T08:16:10.687Z,10.35
2022-09-12T08:18:37.089Z,10.98
2022-09-12T08:21:03.496Z,11.10
2022-09-12T08:23:29.865Z,11.27
2022-09-12T08:25:56.253Z,11.88
2022-09-12T08:28:22.780Z,10.27
2022-09-12T08:30:49.248Z,11.10
2022-09-12T08:33:15.534Z,11.07
2022-09-12T08:35:41.873Z,10.98
2022-09-12T08:38:08.934Z,10.90
2022-09-12T08:40:35.618Z,10.70
2022-09-12T08:43:01.949Z,11.32
2022-09-12T08:45:28.249Z,11.07
2022-09-12T08:47:54.848Z,11.13
2022-09-12T08:50:21.194Z,11.48
2022-09-12T08:52:47.694Z,10.07
2022-09-12T08:55:14.057Z,11.32
2022-09-12T08:57:40.554Z,11.40
2022-09-12T09:00:06.976Z,11.05
2022-09-12T09:02:33.299Z,10.45
2022-09-12T09:04:59.661Z,11.70
2022-09-12T09:07:25.879Z,11.05
2022-09-12T09:09:52.691Z,10.13
2022-09-12T09:12:19.050Z,10.93
2022-09-12T09:14:45.473Z,10.30
2022-09-12T09:17:11.973Z,11.52
2022-09-12T09:19:38.294Z,11.13
2022-09-12T09:22:04.677Z,10.90
2022-09-12T09:24:31.025Z,11.15
2022-09-12T09:26:57.336Z,10.60
2022-09-12T09:29:23.613Z,10.85
2022-09-12T09:31:49.935Z,10.00
2022-09-12T09:34:16.276Z,10.80
2022-09-12T09:36:43.038Z,10.68
2022-09-12T09:39:09.377Z,10.57
2022-09-12T09:41:35.790Z,11.60
2022-09-12T09:44:02.149Z,11.07
2022-09-12T09:46:28.652Z,10.88
2022-09-12T09:48:55.024Z,11.07
2022-09-12T09:51:21.346Z,10.15
2022-09-12T09:53:47.621Z,11.15
2022-09-12T09:56:13.968Z,10.02
2022-09-12T09:58:40.347Z,9.95
2022-09-12T10:01:07.516Z,9.82
2022-09-12T10:03:33.802Z,9.80
2022-09-12T10:06:00.111Z,10.38
2022-09-12T10:08:26.546Z,9.93
2022-09-12T10:10:53.036Z,9.70
2022-09-12T10:13:19.416Z,9.10
2022-09-12T10:15:45.776Z,9.52
2022-09-12T10:18:12.238Z,9.90
2022-09-12T10:20:38.492Z,9.68
2022-09-12T10:23:05.006Z,10.10
2022-09-12T10:25:31.439Z,9.55
2022-09-12T10:27:57.720Z,8.80
2022-09-12T10:30:24.078Z,9.40
2022-09-12T10:32:50.422Z,9.27
2022-09-12T10:35:16.730Z,9.18
2022-09-12T10:37:43.103Z,9.55
2022-09-12T10:40:09.687Z,9.48
2022-09-12T10:42:36.077Z,9.20
2022-09-12T10:45:02.362Z,8.95
2022-09-12T10:47:28.694Z,9.48
2022-09-12T10:49:55.233Z,8.68
2022-09-12T10:52:21.525Z,8.55
2022-09-12T10:54:47.914Z,8.35
2022-09-12T10:57:14.898Z,8.85
2022-09-12T10:59:41.553Z,9.13
2022-09-12T11:02:07.900Z,8.20
2022-09-12T11:04:34.290Z,7.93
2022-09-12T11:07:00.585Z,8.52
2022-09-12T11:09:26.973Z,8.23
2022-09-12T11:11:53.682Z,7.70
2022-09-12T11:14:20.164Z,7.78
2022-09-12T11:16:46.609Z,8.30
2022-09-12T11:19:12.971Z,7.82
2022-09-12T11:21:39.462Z,7.82
2022-09-12T11:24:05.766Z,7.55
2022-09-12T11:26:32.140Z,8.05
2022-09-12T11:28:58.496Z,7.90
2022-09-12T11:31:24.935Z,7.88
2022-09-12T11:33:53.931Z,7.63
2022-09-12T11:36:23.005Z,8.00
2022-09-12T11:38:49.285Z,7.72
2022-09-12T11:41:15.705Z,7.63
2022-09-12T11:43:42.149Z,7.60
2022-09-12T11:46:08.732Z,7.60
2022-09-12T11:48:35.310Z,7.63
2022-09-12T11:51:01.746Z,7.30
2022-09-12T11:53:28.372Z,8.63
2022-09-12T11:55:54.727Z,7.90
2022-09-12T11:58:22.105Z,8.65
2022-09-12T12:00:48.361Z,7.88
2022-09-12T12:03:14.882Z,8.02
2022-09-12T12:05:41.275Z,8.40
2022-09-12T12:08:07.881Z,8.07
2022-09-12T12:10:34.326Z,8.63
2022-09-12T12:13:00.629Z,8.23
2022-09-12T12:15:26.998Z,7.72
2022-09-12T12:17:53.270Z,8.27
2022-09-12T12:20:19.593Z,8.23
2022-09-12T12:22:47.053Z,7.60
2022-09-12T12:25:14.763Z,7.82
2022-09-12T12:27:42.921Z,7.83
2022-09-12T12:30:09.442Z,7.63
2022-09-12T12:32:37.253Z,7.68
2022-09-12T12:35:03.594Z,6.68
2022-09-12T12:37:29.909Z,7.72
2022-09-12T12:39:56.342Z,7.72
2022-09-12T12:42:22.700Z,7.50
2022-09-12T12:44:48.952Z,7.32
2022-09-12T12:47:15.466Z,7.45
2022-09-12T12:49:41.814Z,7.72
2022-09-12T12:52:08.147Z,7.45
2022-09-12T12:54:34.538Z,6.72
2022-09-12T12:57:01.057Z,7.43
2022-09-12T12:59:27.913Z,7.25
2022-09-12T13:01:55.312Z,6.70
2022-09-12T13:04:22.108Z,7.30
2022-09-12T13:06:48.413Z,7.18
2022-09-12T13:09:14.709Z,6.90
2022-09-12T13:11:41.177Z,7.40
2022-09-12T13:14:07.524Z,7.25
2022-09-12T13:16:33.801Z,7.28
2022-09-12T13:19:00.218Z,7.35
2022-09-12T13:21:26.693Z,6.90
2022-09-12T13:23:53.217Z,7.43
2022-09-12T13:26:19.587Z,7.13
2022-09-12T13:28:46.090Z,6.78
2022-09-12T13:31:12.630Z,6.68
2022-09-12T13:33:39.027Z,6.95
2022-09-12T13:36:05.560Z,6.78
2022-09-12T13:38:32.862Z,6.50
2022-09-12T13:40:59.374Z,5.85
2022-09-12T13:43:26.262Z,6.60
2022-09-12T13:45:52.582Z,11.07
2022-09-12T13:48:18.966Z,8.15
2022-09-12T13:50:45.464Z,8.25
2022-09-12T13:53:12.050Z,13.30
2022-09-12T13:55:38.449Z,10.27
2022-09-12T13:58:04.793Z,9.55
2022-09-12T14:00:31.142Z,6.70
2022-09-12T14:02:57.625Z,9.05
2022-09-12T14:05:23.929Z,9.18
2022-09-12T14:07:50.622Z,6.93
2022-09-12T14:10:17.014Z,6.93
2022-09-12T14:12:43.518Z,11.35
2022-09-12T14:15:09.974Z,12.60
2022-09-12T14:17:36.543Z,11.60
2022-09-12T14:20:02.895Z,9.38
2022-09-12T14:22:29.285Z,9.90
2022-09-12T14:24:55.713Z,8.90
2022-09-12T14:27:22.238Z,9.02
2022-09-12T14:29:48.521Z,7.82
2022-09-12T14:32:14.830Z,242.07
2022-09-12T14:34:41.168Z,317.42
2022-09-12T14:37:08.464Z,218.82
2022-09-12T14:39:35.027Z,167.32
2022-09-12T14:42:01.551Z,133.63
2022-09-12T14:44:28.105Z,106.82
2022-09-12T14:46:54.473Z,93.60
2022-09-12T14:49:20.769Z,90.03
2022-09-12T14:51:51.118Z,81.25
2022-09-12T14:54:18.145Z,74.72
2022-09-12T14:56:45.860Z,64.38
2022-09-12T14:59:12.227Z,98.75
2022-09-12T15:01:38.819Z,115.07
2022-09-12T15:04:05.260Z,57.88
2022-09-12T15:06:31.545Z,47.60
2022-09-12T15:08:58.063Z,79.90
2022-09-12T15:11:24.673Z,68.63
2022-09-12T15:13:51.101Z,51.30
2022-09-12T15:16:17.732Z,44.22
2022-09-12T15:18:44.160Z,37.25
2022-09-12T15:21:10.686Z,30.35
2022-09-12T15:23:37.059Z,23.42
2022-09-12T15:26:03.605Z,18.95
2022-09-12T15:28:30.653Z,118.22
2022-09-12T15:30:57.061Z,179.82
2022-09-12T15:33:23.410Z,198.82
2022-09-12T15:35:50.112Z,177.80
2022-09-12T15:38:16.726Z,153.63
2022-09-12T15:40:43.293Z,143.38
2022-09-12T15:43:09.704Z,138.52
2022-09-12T15:45:36.266Z,133.77
2022-09-12T15:48:02.657Z,127.15
2022-09-12T15:50:28.960Z,127.68
2022-09-12T15:52:55.412Z,123.03
2022-09-12T15:55:21.673Z,116.78
2022-09-12T15:57:48.006Z,118.97
2022-09-12T16:00:14.320Z,119.18
2022-09-12T16:02:40.747Z,115.22
2022-09-12T16:05:07.063Z,111.93
2022-09-12T16:07:33.514Z,111.70
2022-09-12T16:09:59.796Z,109.47
2022-09-12T16:12:26.072Z,107.40
2022-09-12T16:14:52.677Z,107.60
2022-09-12T16:17:18.984Z,108.47
2022-09-12T16:19:45.525Z,106.97
2022-09-12T16:22:11.860Z,104.93
2022-09-12T16:24:38.178Z,100.88
2022-09-12T16:27:04.719Z,99.63
2022-09-12T16:29:31.060Z,98.07
2022-09-12T16:31:57.490Z,98.25
2022-09-12T16:34:24.039Z,98.32
2022-09-12T16:36:50.417Z,93.95
2022-09-12T16:39:16.753Z,94.78
2022-09-12T16:41:43.890Z,96.25
2022-09-12T16:44:10.451Z,92.25
2022-09-12T16:46:36.889Z,91.28
2022-09-12T16:49:03.226Z,88.63
2022-09-12T16:51:29.581Z,90.10
2022-09-12T16:53:55.913Z,87.93
2022-09-12T16:56:22.261Z,87.95
2022-09-12T16:58:48.880Z,87.35
2022-09-12T17:01:15.671Z,88.07
2022-09-12T17:03:42.047Z,86.57
2022-09-12T17:06:08.744Z,85.03
2022-09-12T17:08:35.133Z,83.05
2022-09-12T17:11:01.404Z,82.20
2022-09-12T17:13:41.312Z,82.18
2022-09-12T17:16:14.496Z,79.85
2022-09-12T17:18:40.933Z,76.25
2022-09-12T17:21:07.369Z,79.97
2022-09-12T17:23:33.797Z,77.50
2022-09-12T17:26:00.237Z,77.40
2022-09-12T17:28:26.689Z,76.22
2022-09-12T17:30:53.012Z,76.75
2022-09-12T17:33:19.621Z,71.72
2022-09-12T17:35:45.883Z,72.30
2022-09-12T17:38:15.487Z,70.80
2022-09-12T17:40:59.010Z,71.88
2022-09-12T17:43:26.810Z,69.35
2022-09-12T17:45:53.158Z,69.15
2022-09-12T17:48:19.602Z,69.07
2022-09-12T17:50:45.922Z,65.22
2022-09-12T17:53:12.553Z,67.32
2022-09-12T17:55:38.902Z,64.43
2022-09-12T17:58:05.223Z,65.88
2022-09-12T18:00:31.524Z,63.75
2022-09-12T18:02:57.888Z,61.38
2022-09-12T18:05:24.458Z,60.17
2022-09-12T18:07:51.222Z,58.45
2022-09-12T18:10:17.692Z,61.45
2022-09-12T18:12:44.072Z,58.47
2022-09-12T18:15:10.418Z,55.42
2022-09-12T18:17:36.669Z,231.30
2022-09-12T18:20:02.980Z,319.13
2022-09-12T18:22:29.529Z,305.55
2022-09-12T18:24:55.881Z,263.23
2022-09-12T18:27:22.223Z,241.15
2022-09-12T18:30:04.222Z,230.55
2022-09-12T18:32:35.194Z,216.73
2022-09-12T18:35:01.785Z,213.15
2022-09-12T18:37:28.165Z,207.10
2022-09-12T18:39:54.535Z,199.20
2022-09-12T18:42:20.848Z,197.10
2022-09-12T18:44:47.165Z,197.57
2022-09-12T18:47:13.621Z,189.48
2022-09-12T18:49:40.146Z,187.63
2022-09-12T18:52:06.445Z,184.30
2022-09-12T18:54:32.903Z,412.52
2022-09-12T18:56:59.218Z,422.00
2022-09-12T18:59:25.701Z,382.45
2022-09-12T19:01:52.027Z,356.15
2022-09-12T19:04:18.366Z,351.17
2022-09-12T19:06:44.739Z,336.75
2022-09-12T19:09:11.406Z,329.52
2022-09-12T19:11:37.762Z,323.25
2022-09-12T19:14:04.193Z,320.63
2022-09-12T19:16:30.705Z,314.30
2022-09-12T19:18:57.000Z,305.55
2022-09-12T19:21:23.466Z,300.95
2022-09-12T19:23:50.125Z,294.58
2022-09-12T19:26:16.558Z,299.55
2022-09-12T19:28:42.989Z,291.05
2022-09-12T19:31:09.493Z,414.10
2022-09-12T19:33:36.228Z,502.08
2022-09-12T19:36:02.608Z,460.88
2022-09-12T19:38:28.853Z,448.33
2022-09-12T19:40:55.328Z,423.02
2022-09-12T19:43:21.678Z,417.92
2022-09-12T19:45:47.901Z,408.58
2022-09-12T19:48:14.234Z,560.92
2022-09-12T19:50:40.744Z,568.80
2022-09-12T19:53:07.113Z,524.92
2022-09-12T19:55:33.390Z,501.58
2022-09-12T19:57:59.735Z,488.88
2022-09-12T20:00:26.349Z,467.40
2022-09-12T20:02:52.650Z,462.55
2022-09-12T20:05:18.966Z,451.63
2022-09-12T20:07:45.401Z,454.45
2022-09-12T20:10:11.692Z,447.02
2022-09-12T20:12:38.908Z,508.98
2022-09-12T20:15:05.517Z,481.70
2022-09-12T20:17:31.925Z,484.00
2022-09-12T20:19:59.037Z,483.38
2022-09-12T20:22:25.444Z,485.98
2022-09-12T20:24:51.831Z,532.47
2022-09-12T20:27:18.174Z,546.10
2022-09-12T20:29:44.492Z,555.47
2022-09-12T20:32:10.801Z,521.63
2022-09-12T20:34:37.136Z,527.92
2022-09-12T20:37:03.506Z,524.10
2022-09-12T20:39:29.938Z,518.72
2022-09-12T20:41:56.285Z,514.67
2022-09-12T20:44:22.676Z,507.45
2022-09-12T20:46:49.256Z,509.92
2022-09-12T20:49:15.729Z,553.40
2022-09-12T20:51:42.026Z,621.75
2022-09-12T20:54:08.437Z,613.38
2022-09-12T20:56:34.794Z,581.13
2022-09-12T20:59:01.364Z,573.92
2022-09-12T21:01:27.667Z,558.38
2022-09-12T21:03:54.278Z,551.20
2022-09-12T21:06:20.786Z,555.45
2022-09-12T21:08:47.218Z,546.67
2022-09-12T21:11:14.136Z,548.33
2022-09-12T21:13:40.491Z,543.72
2022-09-12T21:16:06.951Z,533.20
2022-09-12T21:18:33.260Z,535.20
2022-09-12T21:21:00.032Z,519.65
2022-09-12T21:23:26.648Z,517.45
2022-09-12T21:25:53.002Z,512.20
2022-09-12T21:28:19.359Z,506.48
2022-09-12T21:30:46.191Z,511.42
2022-09-12T21:33:12.689Z,588.53
2022-09-12T21:35:39.041Z,636.30
2022-09-12T21:38:05.357Z,634.80
2022-09-12T21:40:31.968Z,595.78
2022-09-12T21:42:58.829Z,587.42
2022-09-12T21:45:25.115Z,578.42
2022-09-12T21:47:51.479Z,554.20
2022-09-12T21:50:17.877Z,554.28
2022-09-12T21:52:44.398Z,565.22
2022-09-12T21:55:11.215Z,668.13
2022-09-12T21:57:38.164Z,687.63
2022-09-12T22:00:04.654Z,644.15
2022-09-12T22:02:33.731Z,630.33
2022-09-12T22:05:00.081Z,618.00
2022-09-12T22:07:27.436Z,612.88
2022-09-12T22:09:53.851Z,603.65
2022-09-12T22:12:20.366Z,619.30
2022-09-12T22:14:46.724Z,741.80
2022-09-12T22:17:13.125Z,736.03
2022-09-12T22:19:39.596Z,695.00
2022-09-12T22:22:05.920Z,674.38
2022-09-12T22:24:32.526Z,668.60
2022-09-12T22:26:58.854Z,659.58
2022-09-12T22:29:25.112Z,654.28
2022-09-12T22:31:52.035Z,651.08
2022-09-12T22:34:18.358Z,641.42
2022-09-12T22:36:44.634Z,637.25
2022-09-12T22:39:11.144Z,630.28
2022-09-12T22:41:37.689Z,635.88
2022-09-12T22:44:03.938Z,625.22
2022-09-12T22:46:30.268Z,681.75
2022-09-12T22:48:56.651Z,749.05
2022-09-12T22:51:23.018Z,721.25
2022-09-12T22:53:49.401Z,712.30
2022-09-12T22:56:15.797Z,701.08
2022-09-12T22:58:42.157Z,696.10
2022-09-12T23:01:08.650Z,714.90
2022-09-12T23:03:35.065Z,685.00
2022-09-12T23:06:01.431Z,527.22
2022-09-12T23:08:27.742Z,346.77
2022-09-12T23:10:54.037Z,610.97
2022-09-12T23:13:20.442Z,645.95
2022-09-12T23:15:46.939Z,668.22
2022-09-12T23:18:14.447Z,643.45
2022-09-12T23:20:41.205Z,621.50
2022-09-12T23:23:07.538Z,603.63
2022-09-12T23:25:33.930Z,583.58
2022-09-12T23:28:00.367Z,574.85
2022-09-12T23:30:26.734Z,560.63
2022-09-12T23:32:53.017Z,548.72
2022-09-12T23:35:19.518Z,545.33
2022-09-12T23:37:45.850Z,534.78
2022-09-12T23:40:12.247Z,534.40
2022-09-12T23:42:38.774Z,531.05
2022-09-12T23:45:05.153Z,522.92
2022-09-12T23:47:31.492Z,519.30
2022-09-12T23:49:57.987Z,517.22
2022-09-12T23:52:24.313Z,509.05
2022-09-12T23:54:50.683Z,507.77
2022-09-12T23:57:17.069Z,511.65
2022-09-12T23:59:43.350Z,506.42
